createdAt,value
2019-03-03T00:00:36.068Z,2.98
2019-03-03T00:03:06.514Z,2.95
2019-03-03T00:05:36.973Z,2.96
2019-03-03T00:08:07.402Z,2.99
2019-03-03T00:10:37.799Z,2.99
2019-03-03T00:13:09.305Z,3.03
2019-03-03T00:15:39.641Z,3.03
2019-03-03T00:18:09.986Z,3.04
2019-03-03T00:20:40.336Z,3.04
2019-03-03T00:23:10.679Z,3.06
2019-03-03T00:25:41.022Z,3.03
2019-03-03T00:28:11.365Z,3.00
2019-03-03T00:30:41.743Z,2.98
2019-03-03T00:33:12.113Z,2.97
2019-03-03T00:35:42.455Z,2.96
2019-03-03T00:38:14.448Z,2.94
2019-03-03T00:40:52.580Z,2.95
2019-03-03T00:43:33.526Z,2.99
2019-03-03T00:46:21.949Z,3.00
2019-03-03T00:48:53.943Z,3.04
2019-03-03T00:51:34.852Z,3.06
2019-03-03T00:54:16.209Z,3.05
2019-03-03T00:56:48.204Z,3.07
2019-03-03T00:59:36.519Z,3.07
2019-03-03T01:02:08.806Z,3.06
2019-03-03T01:04:49.630Z,2.99
2019-03-03T01:07:21.573Z,2.91
2019-03-03T01:09:53.555Z,2.82
2019-03-03T01:12:42.195Z,2.80
2019-03-03T01:15:17.255Z,2.74
2019-03-03T01:17:49.220Z,2.64
2019-03-03T01:20:21.217Z,2.51
2019-03-03T01:22:58.948Z,2.42
2019-03-03T01:25:29.292Z,2.28
2019-03-03T01:27:59.831Z,2.16
2019-03-03T01:30:30.172Z,2.09
2019-03-03T01:33:00.533Z,1.99
2019-03-03T01:35:30.848Z,1.92
2019-03-03T01:38:01.107Z,1.84
2019-03-03T01:40:31.411Z,1.73
2019-03-03T01:43:01.741Z,1.60
2019-03-03T01:45:32.386Z,1.55
2019-03-03T01:48:02.743Z,1.46
2019-03-03T01:50:33.093Z,1.34
2019-03-03T01:53:03.374Z,1.24
2019-03-03T01:55:33.668Z,1.19
2019-03-03T01:58:03.994Z,1.15
2019-03-03T02:00:35.125Z,1.07
2019-03-03T02:03:05.395Z,1.03
2019-03-03T02:05:35.670Z,0.97
2019-03-03T02:08:05.928Z,0.96
2019-03-03T02:10:36.200Z,0.93
2019-03-03T02:13:07.221Z,0.84
2019-03-03T02:15:37.557Z,0.86
2019-03-03T02:18:07.826Z,0.83
2019-03-03T02:20:38.163Z,0.83
2019-03-03T02:23:08.466Z,0.83
2019-03-03T02:25:38.818Z,0.85
2019-03-03T02:28:09.084Z,0.87
2019-03-03T02:30:39.374Z,0.88
2019-03-03T02:33:09.826Z,0.92
2019-03-03T02:35:41.194Z,0.99
2019-03-03T02:38:11.458Z,1.07
2019-03-03T02:40:41.738Z,1.03
2019-03-03T02:43:12.020Z,1.05
2019-03-03T02:45:42.313Z,1.12
2019-03-03T02:48:12.684Z,1.15
2019-03-03T02:50:43.030Z,1.20
2019-03-03T02:53:13.365Z,1.28
2019-03-03T02:55:43.724Z,1.32
2019-03-03T02:58:14.052Z,1.29
2019-03-03T03:00:45.961Z,1.33
2019-03-03T03:03:19.383Z,1.33
2019-03-03T03:05:52.932Z,1.34
2019-03-03T03:08:30.714Z,1.40
2019-03-03T03:11:05.344Z,1.52
2019-03-03T03:13:40.799Z,1.55
2019-03-03T03:16:15.410Z,1.59
2019-03-03T03:18:48.463Z,1.57
2019-03-03T03:21:20.371Z,1.68
2019-03-03T03:23:52.296Z,1.71
2019-03-03T03:26:24.241Z,1.67
2019-03-03T03:29:05.344Z,1.65
2019-03-03T03:31:37.275Z,1.61
2019-03-03T03:34:09.209Z,1.67
2019-03-03T03:36:59.551Z,1.73
2019-03-03T03:39:47.779Z,1.75
2019-03-03T03:42:19.791Z,1.86
2019-03-03T03:45:00.639Z,1.87
2019-03-03T03:47:38.795Z,1.93
2019-03-03T03:50:13.756Z,1.99
2019-03-03T03:52:55.006Z,2.02
2019-03-03T03:55:26.996Z,1.98
2019-03-03T03:58:05.104Z,2.11
2019-03-03T04:00:39.974Z,2.07
2019-03-03T04:03:28.238Z,2.08
2019-03-03T04:06:00.224Z,2.10
2019-03-03T04:08:35.352Z,2.11
2019-03-03T04:11:19.623Z,2.14
2019-03-03T04:13:55.242Z,2.24
2019-03-03T04:16:30.084Z,2.31
2019-03-03T04:19:02.015Z,2.40
2019-03-03T04:21:39.654Z,2.44
2019-03-03T04:24:27.927Z,2.48
2019-03-03T04:27:16.011Z,2.53
2019-03-03T04:29:53.649Z,2.54
2019-03-03T04:32:40.726Z,2.44
2019-03-03T04:35:16.061Z,2.40
2019-03-03T04:37:57.352Z,2.41
2019-03-03T04:40:35.017Z,2.50
2019-03-03T04:43:09.585Z,2.58
2019-03-03T04:45:41.583Z,2.64
2019-03-03T04:48:28.849Z,2.72
2019-03-03T04:51:17.205Z,2.72
2019-03-03T04:54:05.625Z,2.81
2019-03-03T04:56:46.301Z,2.90
2019-03-03T04:59:23.938Z,2.95
2019-03-03T05:02:01.811Z,3.02
2019-03-03T05:04:36.660Z,3.10
2019-03-03T05:07:08.664Z,3.13
2019-03-03T05:09:49.070Z,3.16
2019-03-03T05:12:21.298Z,3.27
2019-03-03T05:14:53.285Z,3.30
2019-03-03T05:17:41.673Z,3.39
2019-03-03T05:20:16.633Z,3.41
2019-03-03T05:22:46.911Z,3.45
2019-03-03T05:25:17.190Z,3.50
2019-03-03T05:27:47.481Z,3.52
2019-03-03T05:30:17.749Z,3.57
2019-03-03T05:32:48.065Z,3.57
2019-03-03T05:35:18.702Z,3.61
2019-03-03T05:37:49.050Z,3.63
2019-03-03T05:40:19.410Z,3.70
2019-03-03T05:42:49.789Z,3.74
2019-03-03T05:45:20.050Z,3.75
2019-03-03T05:47:50.395Z,3.84
2019-03-03T05:50:21.550Z,3.84
2019-03-03T05:52:52.554Z,3.93
2019-03-03T05:55:23.503Z,3.96
2019-03-03T05:57:53.885Z,4.04
2019-03-03T06:00:24.159Z,4.03
2019-03-03T06:02:55.563Z,4.10
2019-03-03T06:05:25.964Z,4.16
2019-03-03T06:07:56.239Z,4.24
2019-03-03T06:10:26.499Z,4.29
2019-03-03T06:12:56.783Z,4.34
2019-03-03T06:15:27.925Z,4.37
2019-03-03T06:17:58.287Z,4.35
2019-03-03T06:20:28.634Z,4.34
2019-03-03T06:22:58.910Z,4.39
2019-03-03T06:25:29.169Z,4.38
2019-03-03T06:27:59.559Z,4.41
2019-03-03T06:30:29.908Z,4.42
2019-03-03T06:33:00.191Z,4.41
2019-03-03T06:35:30.583Z,4.43
2019-03-03T06:38:00.925Z,4.47
2019-03-03T06:40:31.219Z,4.48
2019-03-03T06:43:01.481Z,4.49
2019-03-03T06:45:31.814Z,4.56
2019-03-03T06:48:02.080Z,4.59
2019-03-03T06:50:32.453Z,4.59
2019-03-03T06:53:02.745Z,4.62
2019-03-03T06:55:33.014Z,4.69
2019-03-03T06:58:03.282Z,4.70
2019-03-03T07:00:34.563Z,4.76
2019-03-03T07:03:04.932Z,4.77
2019-03-03T07:05:35.267Z,4.75
2019-03-03T07:08:05.646Z,4.83
2019-03-03T07:10:35.998Z,4.88
2019-03-03T07:13:06.309Z,4.90
2019-03-03T07:15:37.416Z,4.99
2019-03-03T07:18:07.767Z,5.12
2019-03-03T07:20:38.154Z,5.22
2019-03-03T07:23:08.495Z,5.30
2019-03-03T07:25:38.774Z,5.36
2019-03-03T07:28:09.281Z,5.48
2019-03-03T07:30:39.668Z,5.58
2019-03-03T07:33:11.601Z,5.65
2019-03-03T07:35:42.046Z,5.73
2019-03-03T07:38:12.420Z,5.76
2019-03-03T07:40:42.709Z,5.71
2019-03-03T07:43:13.102Z,5.84
2019-03-03T07:45:43.497Z,5.86
2019-03-03T07:48:13.840Z,5.94
2019-03-03T07:50:44.209Z,5.99
2019-03-03T07:53:14.491Z,6.04
2019-03-03T07:55:44.767Z,6.09
2019-03-03T07:58:15.111Z,6.15
2019-03-03T08:00:46.471Z,6.19
2019-03-03T08:03:16.747Z,6.24
2019-03-03T08:05:47.109Z,6.31
2019-03-03T08:08:17.394Z,6.40
2019-03-03T08:10:47.763Z,6.52
2019-03-03T08:13:18.161Z,6.66
2019-03-03T08:15:51.018Z,6.83
2019-03-03T08:18:21.518Z,6.89
2019-03-03T08:20:51.866Z,7.01
2019-03-03T08:23:22.150Z,7.23
2019-03-03T08:25:52.506Z,7.50
2019-03-03T08:28:22.765Z,7.57
2019-03-03T08:30:53.028Z,7.61
2019-03-03T08:33:23.383Z,7.73
2019-03-03T08:35:53.699Z,7.81
2019-03-03T08:38:24.025Z,7.83
2019-03-03T08:40:54.378Z,7.78
2019-03-03T08:51:09.249Z,8.31
2019-03-03T09:01:24.091Z,8.57
2019-03-03T09:08:12.083Z,8.94
2019-03-03T09:10:50.208Z,8.91
2019-03-03T09:13:22.159Z,8.93
2019-03-03T09:16:12.868Z,8.95
2019-03-03T09:18:50.542Z,8.92
2019-03-03T09:21:38.987Z,8.85
2019-03-03T09:24:27.092Z,8.79
2019-03-03T09:27:17.317Z,8.78
2019-03-03T09:29:54.980Z,8.82
2019-03-03T09:32:36.643Z,8.90
2019-03-03T09:35:20.541Z,9.00
2019-03-03T09:38:04.831Z,9.10
2019-03-03T09:40:45.794Z,9.23
2019-03-03T09:43:22.960Z,9.35
2019-03-03T09:45:56.872Z,9.62
2019-03-03T09:48:31.709Z,9.80
2019-03-03T09:51:10.836Z,10.02
2019-03-03T09:53:54.638Z,10.15
2019-03-03T09:56:40.775Z,10.64
2019-03-03T10:03:05.757Z,10.88
2019-03-03T10:05:48.250Z,10.94
2019-03-03T10:08:26.853Z,10.97
2019-03-03T10:15:29.983Z,10.60
2019-03-03T10:18:18.359Z,10.35
2019-03-03T10:20:59.875Z,10.27
2019-03-03T10:38:49.595Z,10.06
2019-03-03T10:41:25.954Z,10.00
2019-03-03T10:44:00.681Z,10.01
2019-03-03T10:46:47.905Z,10.02
2019-03-03T10:49:42.468Z,10.09
2019-03-03T10:52:27.474Z,10.12
2019-03-03T10:55:08.176Z,10.15
2019-03-03T10:57:44.488Z,10.21
2019-03-03T11:00:30.023Z,10.24
2019-03-03T11:11:39.664Z,10.40
2019-03-03T11:14:20.479Z,10.66
2019-03-03T11:16:52.633Z,10.80
2019-03-03T11:19:38.123Z,10.96
2019-03-03T11:22:12.955Z,10.92
2019-03-03T11:24:44.998Z,11.07
2019-03-03T11:27:19.663Z,11.27
2019-03-03T11:29:51.641Z,11.45
2019-03-03T11:32:29.760Z,11.46
2019-03-03T11:35:01.977Z,11.45
2019-03-03T11:37:37.527Z,11.61
2019-03-03T11:40:13.128Z,11.73
2019-03-03T11:43:01.671Z,11.91
2019-03-03T11:45:36.625Z,11.86
2019-03-03T11:48:14.523Z,11.64
2019-03-03T11:50:52.199Z,11.59
2019-03-03T11:53:31.711Z,11.70
2019-03-03T11:56:12.895Z,11.62
2019-03-03T11:59:03.076Z,11.59
2019-03-03T12:01:47.974Z,11.75
2019-03-03T12:04:28.936Z,11.78
2019-03-03T12:07:00.914Z,11.86
2019-03-03T12:09:52.258Z,11.79
2019-03-03T12:12:40.328Z,11.84
2019-03-03T12:15:21.103Z,11.95
2019-03-03T12:18:09.213Z,12.02
2019-03-03T12:20:41.928Z,12.07
2019-03-03T12:23:19.635Z,12.11
2019-03-03T12:25:54.018Z,12.20
2019-03-03T12:28:42.132Z,12.15
2019-03-03T12:31:15.466Z,12.23
2019-03-03T12:33:49.023Z,12.20
2019-03-03T12:36:37.273Z,12.12
2019-03-03T12:39:09.376Z,12.12
2019-03-03T12:41:51.522Z,12.22
2019-03-03T12:44:26.287Z,12.30
2019-03-03T12:47:06.915Z,12.18
2019-03-03T12:49:55.338Z,12.06
2019-03-03T12:52:39.475Z,12.00
2019-03-03T12:55:20.529Z,11.96
2019-03-03T12:57:52.400Z,11.90
2019-03-03T13:00:36.342Z,11.90
2019-03-03T13:03:24.931Z,11.84
2019-03-03T13:06:13.345Z,11.85
2019-03-03T13:08:59.402Z,11.76
2019-03-03T13:11:30.910Z,11.82
2019-03-03T13:14:05.888Z,11.74
2019-03-03T13:16:40.847Z,11.74
2019-03-03T13:19:18.495Z,11.67
2019-03-03T13:22:06.683Z,11.65
2019-03-03T13:24:38.788Z,11.57
2019-03-03T13:27:10.790Z,11.46
2019-03-03T13:29:42.886Z,11.33
2019-03-03T13:32:17.839Z,11.20
2019-03-03T13:34:50.990Z,11.07
2019-03-03T13:37:37.307Z,10.93
2019-03-03T13:40:13.748Z,10.81
2019-03-03T13:42:45.713Z,10.73
2019-03-03T13:45:16.000Z,10.58
2019-03-03T13:47:46.255Z,10.49
2019-03-03T13:50:16.613Z,10.36
2019-03-03T13:52:46.964Z,10.22
2019-03-03T13:55:17.504Z,10.16
2019-03-03T13:57:47.770Z,10.11
2019-03-03T14:36:22.414Z,9.41
2019-03-03T15:02:53.594Z,9.25
2019-03-03T15:09:24.618Z,9.18
2019-03-03T15:21:59.151Z,9.09
2019-03-03T15:24:32.581Z,9.06
2019-03-03T15:27:03.221Z,9.06
2019-03-03T15:29:33.511Z,9.05
2019-03-03T15:32:03.828Z,9.05
2019-03-03T15:45:57.430Z,8.94
2019-03-03T16:16:44.313Z,8.75
2019-03-03T16:57:02.266Z,8.66
2019-03-03T16:59:35.118Z,8.65
2019-03-03T17:09:16.955Z,8.71
2019-03-03T17:11:47.709Z,8.73
2019-03-03T17:14:18.050Z,8.73
2019-03-03T17:24:32.491Z,8.82
2019-03-03T17:27:04.640Z,8.82
2019-03-03T17:29:34.866Z,8.78
2019-03-03T17:32:05.325Z,8.83
2019-03-03T17:42:37.236Z,8.79
2019-03-03T17:45:34.292Z,8.79
2019-03-03T17:48:06.174Z,8.75
2019-03-03T17:54:36.578Z,8.68
2019-03-03T17:57:07.064Z,8.62
2019-03-03T17:59:42.102Z,8.64
2019-03-03T18:02:19.538Z,8.60
2019-03-03T18:05:41.923Z,8.60
2019-03-03T18:08:12.355Z,8.63
2019-03-03T18:11:07.340Z,8.62
2019-03-03T18:13:37.878Z,8.60
2019-03-03T18:16:09.100Z,8.58
2019-03-03T18:18:39.461Z,8.57
2019-03-03T18:21:10.308Z,8.55
2019-03-03T18:28:03.557Z,8.53
2019-03-03T18:30:35.001Z,8.50
2019-03-03T18:33:05.340Z,8.53
2019-03-03T18:35:57.820Z,8.50
2019-03-03T18:43:01.559Z,8.51
2019-03-03T18:49:51.328Z,8.51
2019-03-03T18:53:11.008Z,8.48
2019-03-03T18:56:11.377Z,8.48
2019-03-03T19:14:30.168Z,8.44
2019-03-03T19:17:00.594Z,8.45
2019-03-03T19:19:32.913Z,8.47
2019-03-03T19:22:04.100Z,8.45
2019-03-03T19:24:37.365Z,8.47
2019-03-03T19:27:07.817Z,8.49
2019-03-03T19:29:40.170Z,8.50
2019-03-03T19:32:11.494Z,8.55
2019-03-03T19:34:47.629Z,8.54
2019-03-03T19:37:23.378Z,8.57
2019-03-03T19:39:54.138Z,8.54
2019-03-03T19:42:24.626Z,8.58
2019-03-03T19:44:55.083Z,8.60
2019-03-03T19:47:25.399Z,8.60
2019-03-03T19:49:55.593Z,8.59
2019-03-03T19:52:28.755Z,8.63
2019-03-03T19:54:58.229Z,8.62
2019-03-03T19:57:31.094Z,8.65
2019-03-03T20:00:04.173Z,8.68
2019-03-03T20:02:37.026Z,8.70
2019-03-03T20:05:07.295Z,8.69
2019-03-03T20:07:38.519Z,8.70
2019-03-03T20:10:15.674Z,8.74
2019-03-03T20:12:48.349Z,8.78
2019-03-03T20:15:23.747Z,8.75
2019-03-03T20:24:50.919Z,8.74
2019-03-03T20:27:24.104Z,8.77
2019-03-03T20:32:47.521Z,8.77
2019-03-03T20:53:47.062Z,8.71
2019-03-03T20:56:18.857Z,8.74
2019-03-03T20:58:53.993Z,8.77
2019-03-03T21:01:24.514Z,8.75
2019-03-03T21:03:54.800Z,8.72
2019-03-03T21:06:25.075Z,8.72
2019-03-03T21:08:55.384Z,8.70
2019-03-03T21:11:26.206Z,8.69
2019-03-03T21:13:56.907Z,8.70
2019-03-03T21:16:27.351Z,8.67
2019-03-03T21:18:57.810Z,8.72
2019-03-03T21:21:28.594Z,8.68
2019-03-03T21:28:27.766Z,8.70
2019-03-03T21:30:59.013Z,8.76
2019-03-03T21:33:29.278Z,8.75
2019-03-03T21:36:30.932Z,8.73
2019-03-03T21:39:38.601Z,8.77
2019-03-03T21:42:08.926Z,8.72
2019-03-03T21:45:15.090Z,8.73
2019-03-03T21:47:47.510Z,8.73
2019-03-03T21:50:19.787Z,8.75
2019-03-03T21:52:50.614Z,8.73
2019-03-03T21:55:21.015Z,8.76
2019-03-03T21:57:51.354Z,8.85
2019-03-03T22:00:27.427Z,8.79
2019-03-03T22:02:57.835Z,8.77
2019-03-03T22:05:31.956Z,8.68
2019-03-03T22:08:02.226Z,8.70
2019-03-03T22:10:33.630Z,8.69
2019-03-03T22:13:08.581Z,8.66
2019-03-03T22:15:39.062Z,8.64
2019-03-03T22:18:10.722Z,8.67
2019-03-03T22:20:42.879Z,8.67
2019-03-03T22:23:13.645Z,8.73
2019-03-03T22:25:43.997Z,8.78
2019-03-03T22:28:15.587Z,8.70
2019-03-03T22:30:46.049Z,8.72
2019-03-03T22:33:16.402Z,8.67
2019-03-03T22:36:59.915Z,8.70
2019-03-03T22:39:30.251Z,8.68
2019-03-03T22:42:00.547Z,8.67
2019-03-03T22:44:30.778Z,8.65
2019-03-03T22:47:01.179Z,8.66
2019-03-03T22:49:31.582Z,8.66
2019-03-03T22:52:02.646Z,8.66
2019-03-03T22:54:48.090Z,8.63
2019-03-03T22:57:18.352Z,8.69
2019-03-03T23:00:21.759Z,8.68
2019-03-03T23:02:53.658Z,8.62
2019-03-03T23:05:36.064Z,8.65
2019-03-03T23:08:09.676Z,8.64
2019-03-03T23:10:47.040Z,8.64
2019-03-03T23:13:32.830Z,8.65
2019-03-03T23:16:09.030Z,8.67
2019-03-03T23:18:54.450Z,8.67
2019-03-03T23:21:37.050Z,8.61
2019-03-03T23:24:36.260Z,8.68
2019-03-03T23:27:07.193Z,8.65
2019-03-03T23:29:39.273Z,8.61
2019-03-03T23:32:12.295Z,8.62
2019-03-03T23:35:48.096Z,8.62
2019-03-03T23:38:31.757Z,8.60
2019-03-03T23:41:02.041Z,8.63
2019-03-03T23:43:32.390Z,8.60
2019-03-03T23:46:05.545Z,8.60
2019-03-03T23:48:35.878Z,8.55
2019-03-03T23:51:06.237Z,8.62
2019-03-03T23:53:36.820Z,8.67
2019-03-03T23:56:07.147Z,8.65
2019-03-03T23:58:37.473Z,8.66
